バマコ の空港の天気 - METARとTAF

バマコ・セヌー国際空港 ( GABS / BKO ) - マリ バマコ
飛行場実況気象(Metar)
観測時間06/24 09:30 GMT (06/24 09:30 UTC)
風向・風速南西 3m/s
視程10km以上
天気現象
なし
気温30℃
湿度66%
気圧1015hPa
METARGABS 240930Z 23006KT 190V250 CAVOK 30/23 Q1015 NOSIG
過去の天気等 Google飛行場航空写真 Wunderground天気予報

過去48時間のMETAR

飛行場予報(TAF)
発表時間: 6/24 05:20 GMT (6/24 05:20 UTC)
予報対象時間: 24日6時 GMT ~ 25日12時 GMT
風向・風速西南西 5m/s
視程10km以上
少しの雲 雲底高度 910m
24日16時 GMT ~ 24日23時 GMT に 確率 40% で一時的に
風向・風速不定 8m/s 瞬間風速 18m/s
視程4000m
天気現象雷雨
全天の4割程度の雲 雲底高度 910m
少しの積乱雲 雲底高度 1010m
TAF GABS 240520Z 2406/2512 24010KT 9999 FEW030
PROB40 TEMPO 2416/2423 VRB16G35KT 4000 TSRA SCT030 FEW033CB